^^
Meteo Knjazevac Station Historical Data
Daily Summary for September 26, 2021 Units:  Metric    English   Both
Daily Weekly Monthly Yearly Custom
  High: Low: Average:
Temperature: 30.3 °C 8.3 °C 18.7 °C
Dew Point: 17.1 °C 7.4 °C 11.6 °C
Humidity: 98% 35% 68%
Wind Speed: 8km/h 0km/h 2.4km/h
Wind Gust: 14.5km/h - -
Wind- - SW
Pressure: 1023.9 hPa 1019.5 hPa -
Precipitation: 0 mm    
Historical Graphs
 
 
Tabular Data for September 26, 2021
Time Temperature Dew Point Pressure Wind Wind Speed Wind Gust Humidity Rainfall Rate (Hourly) solar Conditions
00:00 12.5 °C 9.9 °C 1023.2 hPa West 1.6 km/h 6.4 km/h 84% 0 mm 0 W/m2
00:10 12.2 °C 9.6 °C 1023.2 hPa Calm   3.2 km/h 84% 0 mm 0 W/m2
00:20 11.9 °C 9.4 °C 1023.2 hPa WNW 4.8 km/h 9.7 km/h 85% 0 mm 0 W/m2
00:30 12 °C 9.7 °C 1023.2 hPa WNW 3.2 km/h 6.4 km/h 86% 0 mm 0 W/m2
00:40 12 °C 9.7 °C 1023.2 hPa WNW 3.2 km/h 6.4 km/h 86% 0 mm 0 W/m2
00:50 11.9 °C 9.6 °C 1023.2 hPa NW 1.6 km/h 6.4 km/h 86% 0 mm 0 W/m2
01:00 11.8 °C 9.6 °C 1023.2 hPa WNW 1.6 km/h 6.4 km/h 86% 0 mm 0 W/m2
01:10 11.6 °C 9.3 °C 1023.2 hPa West 3.2 km/h 4.8 km/h 86% 0 mm 0 W/m2
01:20 11.3 °C 9.1 °C 1023.2 hPa WNW 3.2 km/h 4.8 km/h 86% 0 mm 0 W/m2
01:30 11.1 °C 8.8 °C 1023.2 hPa WNW 1.6 km/h 6.4 km/h 86% 0 mm 0 W/m2
01:40 10.9 °C 9 °C 1023.2 hPa WNW 3.2 km/h 6.4 km/h 88% 0 mm 0 W/m2
01:50 10.9 °C 9.2 °C 1023.2 hPa Calm   6.4 km/h 89% 0 mm 0 W/m2
02:00 10.8 °C 8.9 °C 1023.2 hPa WNW 3.2 km/h 6.4 km/h 88% 0 mm 0 W/m2
02:10 10.6 °C 8.9 °C 1023.6 hPa West 1.6 km/h 6.4 km/h 89% 0 mm 0 W/m2
02:20 10.4 °C 8.7 °C 1023.6 hPa West 3.2 km/h 6.4 km/h 89% 0 mm 0 W/m2
02:30 10.2 °C 8.6 °C 1023.2 hPa WNW 3.2 km/h 8 km/h 90% 0 mm 0 W/m2
02:40 10.2 °C 8.6 °C 1023.2 hPa WNW 1.6 km/h 8 km/h 90% 0 mm 0 W/m2
02:50 10.2 °C 8.6 °C 1023.2 hPa Calm   4.8 km/h 90% 0 mm 0 W/m2
03:00 10.2 °C 8.8 °C 1023.2 hPa NW 3.2 km/h 4.8 km/h 91% 0 mm 0 W/m2
03:10 10.2 °C 8.6 °C 1023.2 hPa NW 3.2 km/h 6.4 km/h 90% 0 mm 0 W/m2
03:20 10.1 °C 8.6 °C 1023.2 hPa NW 1.6 km/h 4.8 km/h 90% 0 mm 0 W/m2
03:30 9.9 °C 8.3 °C 1023.2 hPa West 3.2 km/h 6.4 km/h 90% 0 mm 0 W/m2
03:40 9.7 °C 8.1 °C 1023.2 hPa West 3.2 km/h 4.8 km/h 90% 0 mm 0 W/m2
03:50 9.5 °C 8.1 °C 1023.2 hPa WNW 4.8 km/h 9.7 km/h 91% 0 mm 0 W/m2
04:00 9.4 °C 8 °C 1023.2 hPa West 3.2 km/h 9.7 km/h 91% 0 mm 0 W/m2
04:10 9.3 °C 7.9 °C 1023.2 hPa West 1.6 km/h 6.4 km/h 91% 0 mm 0 W/m2
04:20 9.2 °C 8.1 °C 1023.2 hPa NW 1.6 km/h 4.8 km/h 93% 0 mm 0 W/m2
04:30 9.2 °C 8.1 °C 1023.2 hPa West 1.6 km/h 4.8 km/h 93% 0 mm 0 W/m2
04:40 9.2 °C 8.1 °C 1023.2 hPa West 4.8 km/h 8 km/h 93% 0 mm 0 W/m2
04:50 9.1 °C 8 °C 1023.2 hPa West 1.6 km/h 8 km/h 93% 0 mm 0 W/m2
05:00 9 °C 7.9 °C 1023.6 hPa West 1.6 km/h 8 km/h 93% 0 mm 0 W/m2
05:10 8.9 °C 8 °C 1023.6 hPa WNW 3.2 km/h 9.7 km/h 94% 0 mm 0 W/m2
05:20 9.1 °C 8.2 °C 1023.6 hPa West 3.2 km/h 9.7 km/h 94% 0 mm 0 W/m2
05:30 9 °C 7.9 °C 1023.6 hPa West 3.2 km/h 8 km/h 93% 0 mm 0 W/m2
05:40 8.8 °C 7.7 °C 1023.6 hPa West 3.2 km/h 6.4 km/h 93% 0 mm 0 W/m2
05:50 8.7 °C 7.6 °C 1023.6 hPa West 3.2 km/h 8 km/h 93% 0 mm 0 W/m2
06:00 8.6 °C 7.7 °C 1023.6 hPa West 1.6 km/h 8 km/h 94% 0 mm 0 W/m2
06:10 8.5 °C 7.6 °C 1023.6 hPa West 3.2 km/h 8 km/h 94% 0 mm 0 W/m2
06:20 8.5 °C 7.6 °C 1023.6 hPa West 8 km/h 9.7 km/h 94% 0 mm 0 W/m2
06:30 8.5 °C 7.6 °C 1023.9 hPa WSW 3.2 km/h 9.7 km/h 94% 0 mm 9 W/m2
06:40 8.3 °C 7.4 °C 1023.9 hPa WSW 4.8 km/h 8 km/h 94% 0 mm 17 W/m2
06:50 8.3 °C 7.6 °C 1023.9 hPa West 4.8 km/h 8 km/h 95% 0 mm 26 W/m2
07:00 8.6 °C 8 °C 1023.9 hPa WNW 3.2 km/h 8 km/h 96% 0 mm 33 W/m2
07:10 8.8 °C 8.1 °C 1023.9 hPa West 3.2 km/h 8 km/h 95% 0 mm 39 W/m2
07:20 8.8 °C 8.2 °C 1023.9 hPa West 3.2 km/h 4.8 km/h 96% 0 mm 103 W/m2
07:30 9 °C 8.4 °C 1023.9 hPa West 1.6 km/h 8 km/h 96% 0 mm 130 W/m2
07:40 9.1 °C 8.5 °C 1023.9 hPa West 1.6 km/h 3.2 km/h 96% 0 mm 137 W/m2
07:50 9.3 °C 8.7 °C 1023.9 hPa West 1.6 km/h 6.4 km/h 96% 0 mm 188 W/m2
08:00 9.7 °C 9.4 °C 1023.9 hPa West 3.2 km/h 6.4 km/h 98% 0 mm 218 W/m2
08:10 10.2 °C 9.9 °C 1023.9 hPa WSW 1.6 km/h 3.2 km/h 98% 0 mm 242 W/m2
08:20 10.7 °C 10.1 °C 1023.9 hPa Calm   4.8 km/h 96% 0 mm 285 W/m2
08:30 11.7 °C 11.1 °C 1023.9 hPa West 3.2 km/h 4.8 km/h 96% 0 mm 322 W/m2
08:40 13.2 °C 12.3 °C 1023.9 hPa WSW 3.2 km/h 4.8 km/h 94% 0 mm 352 W/m2
08:50 14.4 °C 12.8 °C 1023.9 hPa West 1.6 km/h 4.8 km/h 90% 0 mm 380 W/m2
09:00 15.6 °C 13.3 °C 1023.9 hPa West 1.6 km/h 4.8 km/h 86% 0 mm 407 W/m2
09:10 16.7 °C 14.2 °C 1023.9 hPa Calm   4.8 km/h 85% 0 mm 434 W/m2
09:20 17.8 °C 14.5 °C 1023.9 hPa SW 1.6 km/h 4.8 km/h 81% 0 mm 460 W/m2
09:30 18.7 °C 14.8 °C 1023.9 hPa SW 1.6 km/h 3.2 km/h 78% 0 mm 484 W/m2
09:40 19.8 °C 15.7 °C 1023.9 hPa SSW 1.6 km/h 6.4 km/h 77% 0 mm 508 W/m2
09:50 20.7 °C 15.5 °C 1023.6 hPa SSW 3.2 km/h 6.4 km/h 72% 0 mm 531 W/m2
10:00 21.6 °C 15.7 °C 1023.9 hPa SSW 3.2 km/h 8 km/h 69% 0 mm 552 W/m2
10:10 22.3 °C 16.1 °C 1023.6 hPa SSW 1.6 km/h 6.4 km/h 68% 0 mm 277 W/m2
10:20 23.2 °C 16.3 °C 1023.6 hPa SE 3.2 km/h 9.7 km/h 65% 0 mm 193 W/m2
10:30 23.8 °C 16.1 °C 1023.6 hPa ESE 4.8 km/h 11.3 km/h 62% 0 mm 610 W/m2
10:40 24.5 °C 16.2 °C 1023.2 hPa East 3.2 km/h 9.7 km/h 60% 0 mm 461 W/m2
10:50 25 °C 16.4 °C 1023.2 hPa ENE 1.6 km/h 8 km/h 59% 0 mm 124 W/m2
11:00 25.6 °C 16.7 °C 1023.2 hPa East 3.2 km/h 8 km/h 58% 0 mm 520 W/m2
11:10 26 °C 17.1 °C 1022.9 hPa Calm   8 km/h 58% 0 mm 666 W/m2
11:20 26.5 °C 16.4 °C 1022.9 hPa North 1.6 km/h 8 km/h 54% 0 mm 677 W/m2
11:30 27 °C 16.6 °C 1022.9 hPa SSE 3.2 km/h 8 km/h 53% 0 mm 686 W/m2
11:40 27.4 °C 16.1 °C 1022.9 hPa WSW 3.2 km/h 8 km/h 50% 0 mm 693 W/m2
11:50 27.8 °C 15.4 °C 1022.6 hPa SW 3.2 km/h 8 km/h 47% 0 mm 699 W/m2
12:00 28.1 °C 14.7 °C 1022.6 hPa SSE 3.2 km/h 8 km/h 44% 0 mm 702 W/m2
12:10 28.5 °C 14.3 °C 1022.2 hPa North 1.6 km/h 8 km/h 42% 0 mm 705 W/m2
12:20 28.7 °C 14.6 °C 1022.2 hPa East 1.6 km/h 8 km/h 42% 0 mm 706 W/m2
12:30 29 °C 13.7 °C 1022.2 hPa NE 3.2 km/h 9.7 km/h 39% 0 mm 705 W/m2
12:40 29.3 °C 13.5 °C 1022.2 hPa NE 1.6 km/h 9.7 km/h 38% 0 mm 702 W/m2
12:50 29.5 °C 14.1 °C 1021.9 hPa ENE 3.2 km/h 9.7 km/h 39% 0 mm 698 W/m2
13:00 29.7 °C 13.9 °C 1021.9 hPa Calm   8 km/h 38% 0 mm 692 W/m2
13:10 29.9 °C 14.1 °C 1021.9 hPa SW 8 km/h 11.3 km/h 38% 0 mm 685 W/m2
13:20 30 °C 14.6 °C 1021.6 hPa West 4.8 km/h 12.9 km/h 39% 0 mm 676 W/m2
13:30 30.2 °C 14.3 °C 1021.6 hPa West 3.2 km/h 8 km/h 38% 0 mm 666 W/m2
13:40 30.1 °C 14.2 °C 1021.6 hPa South 1.6 km/h 9.7 km/h 38% 0 mm 654 W/m2
13:50 30.2 °C 13.9 °C 1021.2 hPa South 3.2 km/h 6.4 km/h 37% 0 mm 640 W/m2
14:00 30.3 °C 14.4 °C 1021.2 hPa WSW 4.8 km/h 9.7 km/h 38% 0 mm 625 W/m2
14:10 30.2 °C 13.1 °C 1021.2 hPa WSW 3.2 km/h 11.3 km/h 35% 0 mm 609 W/m2
14:20 30.1 °C 12.9 °C 1020.9 hPa WSW 3.2 km/h 9.7 km/h 35% 0 mm 591 W/m2
14:30 30.1 °C 13.8 °C 1020.9 hPa South 3.2 km/h 9.7 km/h 37% 0 mm 572 W/m2
14:40 30.2 °C 13.9 °C 1020.9 hPa West 1.6 km/h 8 km/h 37% 0 mm 551 W/m2
14:50 30.2 °C 14.3 °C 1020.5 hPa SW 3.2 km/h 9.7 km/h 38% 0 mm 530 W/m2
15:00 30.2 °C 13.4 °C 1020.5 hPa SSE 1.6 km/h 8 km/h 36% 0 mm 507 W/m2
15:10 30.2 °C 13.9 °C 1020.5 hPa NNE 3.2 km/h 6.4 km/h 37% 0 mm 483 W/m2
15:20 30.2 °C 13.4 °C 1020.2 hPa NE 1.6 km/h 11.3 km/h 36% 0 mm 458 W/m2
15:30 30.2 °C 13.9 °C 1020.2 hPa NE 1.6 km/h 14.5 km/h 37% 0 mm 432 W/m2
15:40 30.2 °C 13.9 °C 1020.2 hPa North 3.2 km/h 9.7 km/h 37% 0 mm 406 W/m2
15:50 30.3 °C 14 °C 1020.2 hPa NNE 3.2 km/h 9.7 km/h 37% 0 mm 378 W/m2
16:00 30.2 °C 13.5 °C 1019.9 hPa SE 3.2 km/h 6.4 km/h 36% 0 mm 350 W/m2
16:10 30.1 °C 13.8 °C 1019.9 hPa NE 3.2 km/h 6.4 km/h 37% 0 mm 322 W/m2
16:20 30.1 °C 12.9 °C 1019.9 hPa NNE 1.6 km/h 9.7 km/h 35% 0 mm 293 W/m2
16:30 29.9 °C 12.8 °C 1019.9 hPa NNE 3.2 km/h 8 km/h 35% 0 mm 264 W/m2
16:40 29.8 °C 13.6 °C 1019.9 hPa Calm   4.8 km/h 37% 0 mm 235 W/m2
16:50 29.6 °C 12.5 °C 1019.9 hPa North 3.2 km/h 8 km/h 35% 0 mm 206 W/m2
17:00 29.4 °C 13.2 °C 1019.5 hPa North 3.2 km/h 11.3 km/h 37% 0 mm 174 W/m2
17:10 29.1 °C 13.3 °C 1019.5 hPa North 3.2 km/h 9.7 km/h 38% 0 mm 146 W/m2
17:20 28.7 °C 13.4 °C 1019.5 hPa North 3.2 km/h 9.7 km/h 39% 0 mm 118 W/m2
17:30 28.4 °C 13.5 °C 1019.5 hPa North 4.8 km/h 11.3 km/h 40% 0 mm 90 W/m2
17:40 28 °C 13.9 °C 1019.5 hPa North 3.2 km/h 11.3 km/h 42% 0 mm 64 W/m2
17:50 27.6 °C 13.9 °C 1019.5 hPa Calm   6.4 km/h 43% 0 mm 41 W/m2
18:00 27.1 °C 13.8 °C 1019.5 hPa Calm   3.2 km/h 44% 0 mm 23 W/m2
18:10 26.4 °C 13.6 °C 1019.9 hPa NNW 3.2 km/h 8 km/h 45% 0 mm 9 W/m2
18:20 25.9 °C 13.7 °C 1019.9 hPa South 3.2 km/h 6.4 km/h 47% 0 mm 5 W/m2
18:30 25.2 °C 13.7 °C 1019.9 hPa South 4.8 km/h 8 km/h 49% 0 mm 0 W/m2
18:40 24.4 °C 13.6 °C 1019.9 hPa South 3.2 km/h 8 km/h 51% 0 mm 0 W/m2
18:50 23.8 °C 13.7 °C 1019.9 hPa SSW 3.2 km/h 4.8 km/h 53% 0 mm 0 W/m2
19:00 23.1 °C 13.3 °C 1019.9 hPa SW 3.2 km/h 4.8 km/h 54% 0 mm 0 W/m2
19:10 22.4 °C 12.9 °C 1019.9 hPa SW 3.2 km/h 8 km/h 55% 0 mm 0 W/m2
19:20 21.9 °C 13 °C 1019.9 hPa WSW 3.2 km/h 6.4 km/h 57% 0 mm 0 W/m2
19:30 21.4 °C 12.8 °C 1019.9 hPa WSW 3.2 km/h 4.8 km/h 58% 0 mm 0 W/m2
19:40 20.9 °C 12.7 °C 1019.9 hPa SW 3.2 km/h 4.8 km/h 59% 0 mm 0 W/m2
19:50 20.4 °C 12.4 °C 1020.2 hPa West 3.2 km/h 4.8 km/h 60% 0 mm 0 W/m2
20:00 19.9 °C 11.9 °C 1020.2 hPa WSW 3.2 km/h 4.8 km/h 60% 0 mm 0 W/m2
20:10 19.4 °C 11.9 °C 1020.2 hPa West 1.6 km/h 4.8 km/h 62% 0 mm 0 W/m2
20:20 18.9 °C 11.7 °C 1020.2 hPa WSW 1.6 km/h 3.2 km/h 63% 0 mm 0 W/m2
20:30 18.4 °C 11.5 °C 1020.2 hPa SW 1.6 km/h 3.2 km/h 64% 0 mm 0 W/m2
20:40 18.1 °C 11.2 °C 1020.5 hPa Calm   3.2 km/h 64% 0 mm 0 W/m2
20:50 17.7 °C 11.1 °C 1020.5 hPa Calm   3.2 km/h 65% 0 mm 0 W/m2
21:00 17.4 °C 11.2 °C 1020.5 hPa Calm     67% 0 mm 0 W/m2
21:10 17.1 °C 11.2 °C 1020.5 hPa WNW 1.6 km/h 3.2 km/h 68% 0 mm 0 W/m2
21:20 16.8 °C 10.8 °C 1020.5 hPa South 1.6 km/h 4.8 km/h 68% 0 mm 0 W/m2
21:30 16.6 °C 11.1 °C 1020.5 hPa SW 1.6 km/h 3.2 km/h 70% 0 mm 0 W/m2
21:40 16.4 °C 11.3 °C 1020.5 hPa Calm   6.4 km/h 72% 0 mm 0 W/m2
21:50 16.1 °C 11.1 °C 1020.9 hPa Calm   3.2 km/h 72% 0 mm 0 W/m2
22:00 15.9 °C 10.4 °C 1020.9 hPa Calm   1.6 km/h 70% 0 mm 0 W/m2
22:10 15.6 °C 10.6 °C 1020.9 hPa Calm     72% 0 mm 0 W/m2
22:20 15.2 °C 10.4 °C 1020.9 hPa Calm   3.2 km/h 73% 0 mm 0 W/m2
22:30 14.8 °C 10.1 °C 1020.9 hPa Calm   1.6 km/h 73% 0 mm 0 W/m2
22:40 14.6 °C 10 °C 1020.9 hPa Calm   3.2 km/h 74% 0 mm 0 W/m2
22:50 14.3 °C 9.7 °C 1020.9 hPa NW 1.6 km/h 3.2 km/h 74% 0 mm 0 W/m2
23:00 14.1 °C 9.7 °C 1020.9 hPa Calm   3.2 km/h 75% 0 mm 0 W/m2
23:10 14 °C 10.1 °C 1020.9 hPa Calm   1.6 km/h 77% 0 mm 0 W/m2
23:20 13.8 °C 9.8 °C 1021.2 hPa Calm     77% 0 mm 0 W/m2
23:30 13.6 °C 9.8 °C 1021.2 hPa Calm   1.6 km/h 78% 0 mm 0 W/m2
23:40 13.4 °C 9.7 °C 1021.2 hPa Calm   3.2 km/h 78% 0 mm 0 W/m2
23:50 13.2 °C 9.4 °C 1021.2 hPa Calm   3.2 km/h 78% 0 mm 0 W/m2
Knjazevac, Serbia
Compliments of Weather Underground - 2 mb